Time;durP1;ratioP1;P1;durP2;ratioP2;P2;SDS_P1;SDS_P2;PMS_P1;PMS_P2;Temp;Humidity;BMP_temperature;BMP_pressure;BME280_temperature;BME280_humidity;BME280_pressure;Samples;Min_cycle;Max_cycle;Signal;HPM_P1;HPM_P2
2022/12/23 00:02:16;;;;;;;26.13;10.30;;;;;;;;;;5079231;28;20032;-89
2022/12/23 00:04:45;;;;;;;23.55;8.98;;;;;;;;;;5076849;28;20043;-89
2022/12/23 00:07:40;;;;;;;25.13;9.55;;;;;;;;;;5073860;28;20067;-89
2022/12/23 00:10:11;;;;;;;28.77;8.82;;;;;;;;;;5078754;28;20033;-89
2022/12/23 00:15:26;;;;;;;25.08;9.55;;;;;;;;;;5070979;28;20119;-90
2022/12/23 00:17:54;;;;;;;22.02;9.25;;;;;;;;;;5076260;28;20473;-90
2022/12/23 00:20:22;;;;;;;23.67;8.77;;;;;;;;;;5061368;28;20037;-90
2022/12/23 00:23:05;;;;;;;21.30;8.73;;;;;;;;;;5082746;28;20071;-89
2022/12/23 00:25:41;;;;;;;22.05;8.73;;;;;;;;;;5085289;28;20040;-89
2022/12/23 00:28:17;;;;;;;25.70;9.52;;;;;;;;;;5079323;28;20060;-89
2022/12/23 00:31:12;;;;;;;24.52;9.88;;;;;;;;;;5083567;28;20127;-89
2022/12/23 00:33:45;;;;;;;28.10;9.85;;;;;;;;;;5084529;28;20028;-89
2022/12/23 00:36:26;;;;;;;23.90;8.63;;;;;;;;;;5073847;28;20049;-88
2022/12/23 00:44:28;;;;;;;24.08;9.60;;;;;;;;;;5051179;28;20072;-89
2022/12/23 00:46:56;;;;;;;25.98;9.65;;;;;;;;;;5087794;28;20031;-89
2022/12/23 00:49:42;;;;;;;24.42;9.27;;;;;;;;;;5046581;28;20048;-89
2022/12/23 00:52:13;;;;;;;25.02;8.90;;;;;;;;;;5064389;28;20482;-89
2022/12/23 00:54:40;;;;;;;22.15;9.15;;;;;;;;;;5064731;28;20040;-89
2022/12/23 00:57:12;;;;;;;26.02;10.27;;;;;;;;;;5075257;28;20108;-89
2022/12/23 00:59:40;;;;;;;23.05;9.25;;;;;;;;;;5080704;28;20036;-89
2022/12/23 01:05:35;;;;;;;23.02;8.90;;;;;;;;;;5082289;28;20035;-89
2022/12/23 01:08:10;;;;;;;24.15;8.70;;;;;;;;;;5063828;28;20033;-88
2022/12/23 01:10:39;;;;;;;24.48;8.80;;;;;;;;;;5083970;28;20444;-89
2022/12/23 01:13:08;;;;;;;24.73;8.63;;;;;;;;;;5082319;28;20059;-88
2022/12/23 01:15:40;;;;;;;22.35;8.73;;;;;;;;;;5078343;28;20052;-88
2022/12/23 01:18:08;;;;;;;25.38;8.68;;;;;;;;;;5068200;28;20064;-89
2022/12/23 01:20:37;;;;;;;25.13;9.30;;;;;;;;;;5079803;28;20063;-89
2022/12/23 01:23:05;;;;;;;25.63;9.85;;;;;;;;;;5065736;28;20067;-88
2022/12/23 01:25:32;;;;;;;26.63;9.32;;;;;;;;;;5061438;28;20044;-88
2022/12/23 01:28:25;;;;;;;23.73;9.13;;;;;;;;;;5081201;28;20486;-89
2022/12/23 01:31:16;;;;;;;24.52;9.85;;;;;;;;;;5065821;28;20044;-89
2022/12/23 01:33:44;;;;;;;20.85;9.02;;;;;;;;;;5081768;28;20325;-89
2022/12/23 01:36:12;;;;;;;24.25;9.02;;;;;;;;;;5073036;28;20037;-89
2022/12/23 01:38:40;;;;;;;23.80;9.35;;;;;;;;;;5030385;28;20033;-88
2022/12/23 01:44:51;;;;;;;24.75;8.55;;;;;;;;;;5081000;28;20044;-88
2022/12/23 01:47:24;;;;;;;23.48;9.45;;;;;;;;;;5079529;28;20047;-89
2022/12/23 01:50:19;;;;;;;24.48;9.43;;;;;;;;;;5070580;28;20115;-89
2022/12/23 01:52:53;;;;;;;21.08;8.43;;;;;;;;;;5064098;28;20477;-88
2022/12/23 01:55:25;;;;;;;23.27;9.55;;;;;;;;;;5082272;28;20547;-89
2022/12/23 01:57:55;;;;;;;21.85;8.52;;;;;;;;;;5081557;28;20085;-88
2022/12/23 02:09:15;;;;;;;25.23;9.10;;;;;;;;;;5077566;28;20114;-89
2022/12/23 02:11:53;;;;;;;26.35;9.70;;;;;;;;;;5061718;28;20045;-90
2022/12/23 02:17:38;;;;;;;28.27;11.35;;;;;;;;;;5074850;28;20053;-89
2022/12/23 02:20:47;;;;;;;26.65;10.00;;;;;;;;;;5058749;28;20045;-88
2022/12/23 02:23:39;;;;;;;28.58;10.50;;;;;;;;;;5038699;28;20110;-89
2022/12/23 02:26:12;;;;;;;25.27;10.27;;;;;;;;;;5049085;28;20036;-88
2022/12/23 02:29:21;;;;;;;30.33;9.98;;;;;;;;;;5080685;28;20028;-89
2022/12/23 02:32:17;;;;;;;26.88;9.77;;;;;;;;;;5077119;28;20266;-89
2022/12/23 02:35:01;;;;;;;25.13;10.05;;;;;;;;;;5079494;28;20024;-89
2022/12/23 02:37:48;;;;;;;21.52;9.25;;;;;;;;;;5081380;28;20024;-88
2022/12/23 02:41:07;;;;;;;25.63;10.52;;;;;;;;;;5080891;28;20496;-89
2022/12/23 02:43:46;;;;;;;23.98;9.82;;;;;;;;;;5076345;28;20036;-89
2022/12/23 02:46:37;;;;;;;24.67;9.35;;;;;;;;;;5062093;28;20074;-89
2022/12/23 02:49:31;;;;;;;26.23;8.85;;;;;;;;;;5033791;28;20098;-89
2022/12/23 02:52:03;;;;;;;33.08;11.57;;;;;;;;;;5082663;28;20437;-90
2022/12/23 02:54:35;;;;;;;23.58;9.90;;;;;;;;;;5030406;28;20079;-89
2022/12/23 02:57:36;;;;;;;22.52;9.15;;;;;;;;;;5079572;28;20051;-89
2022/12/23 03:00:05;;;;;;;25.63;11.20;;;;;;;;;;5046590;28;20469;-89
2022/12/23 03:02:38;;;;;;;25.65;10.38;;;;;;;;;;5062624;28;20098;-89
2022/12/23 03:05:24;;;;;;;27.13;10.07;;;;;;;;;;5082795;28;20036;-89
2022/12/23 03:07:56;;;;;;;24.40;9.82;;;;;;;;;;5079636;28;20032;-89
2022/12/23 03:10:46;;;;;;;20.73;9.18;;;;;;;;;;5060374;28;20040;-88
2022/12/23 03:13:55;;;;;;;27.77;9.60;;;;;;;;;;5078688;28;20049;-89
2022/12/23 03:16:59;;;;;;;22.20;8.98;;;;;;;;;;5075651;28;20028;-89
2022/12/23 03:19:47;;;;;;;27.15;10.38;;;;;;;;;;5079883;28;20036;-89
2022/12/23 03:22:29;;;;;;;30.13;11.07;;;;;;;;;;5077956;28;20043;-89
2022/12/23 03:25:02;;;;;;;31.60;11.15;;;;;;;;;;5062718;28;20030;-89
2022/12/23 03:27:53;;;;;;;30.30;10.10;;;;;;;;;;5060335;28;20032;-89
2022/12/23 03:30:22;;;;;;;28.85;10.95;;;;;;;;;;5079050;28;20056;-89
2022/12/23 03:33:13;;;;;;;29.77;11.45;;;;;;;;;;5075829;28;20043;-89
2022/12/23 03:35:51;;;;;;;26.33;10.93;;;;;;;;;;5043591;28;20048;-88
2022/12/23 03:38:25;;;;;;;28.45;10.05;;;;;;;;;;5056653;28;20501;-89
2022/12/23 03:40:59;;;;;;;28.08;10.07;;;;;;;;;;5069085;28;20143;-88
2022/12/23 03:43:32;;;;;;;26.73;10.35;;;;;;;;;;5076378;28;20028;-88
2022/12/23 03:46:06;;;;;;;26.17;10.20;;;;;;;;;;5042056;28;20045;-88
2022/12/23 03:48:39;;;;;;;27.08;11.15;;;;;;;;;;5073914;28;20575;-89
2022/12/23 03:51:21;;;;;;;27.67;10.85;;;;;;;;;;5077967;28;20518;-89
2022/12/23 03:54:02;;;;;;;24.10;10.40;;;;;;;;;;5046067;28;20486;-88
2022/12/23 03:56:35;;;;;;;25.83;10.52;;;;;;;;;;5062479;28;20047;-89
2022/12/23 03:59:16;;;;;;;22.05;9.02;;;;;;;;;;5063749;28;20044;-89
2022/12/23 04:02:16;;;;;;;21.67;9.07;;;;;;;;;;5059573;28;20032;-89
2022/12/23 04:05:18;;;;;;;27.98;8.55;;;;;;;;;;5065168;28;20576;-89
2022/12/23 04:07:58;;;;;;;26.88;10.20;;;;;;;;;;5062519;28;20041;-89
2022/12/23 04:10:51;;;;;;;27.90;11.68;;;;;;;;;;5068182;28;20044;-89
2022/12/23 04:13:26;;;;;;;26.88;9.43;;;;;;;;;;5079424;28;20047;-88
2022/12/23 04:15:57;;;;;;;31.33;9.98;;;;;;;;;;5060665;28;20040;-88
2022/12/23 04:18:24;;;;;;;27.88;10.77;;;;;;;;;;5081041;28;20032;-88
2022/12/23 04:20:52;;;;;;;32.28;9.70;;;;;;;;;;5079952;28;20137;-88
2022/12/23 04:23:20;;;;;;;24.27;10.35;;;;;;;;;;5066983;28;20060;-88
2022/12/23 04:25:57;;;;;;;27.90;10.63;;;;;;;;;;5078882;28;20043;-88
2022/12/23 04:28:24;;;;;;;24.45;9.95;;;;;;;;;;5060949;28;20040;-89
2022/12/23 04:30:52;;;;;;;24.15;9.85;;;;;;;;;;5060250;28;20047;-89
2022/12/23 04:34:11;;;;;;;26.23;9.55;;;;;;;;;;5027322;28;20116;-89
2022/12/23 04:36:38;;;;;;;29.67;9.65;;;;;;;;;;5044125;28;20037;-88
2022/12/23 04:39:06;;;;;;;26.77;10.57;;;;;;;;;;5079160;28;20046;-88
2022/12/23 04:41:34;;;;;;;30.58;10.75;;;;;;;;;;5072230;28;20032;-88
2022/12/23 04:44:02;;;;;;;32.20;11.15;;;;;;;;;;5059609;28;20135;-88
2022/12/23 04:46:30;;;;;;;30.20;10.48;;;;;;;;;;5076330;28;20050;-88
2022/12/23 04:48:58;;;;;;;34.00;11.82;;;;;;;;;;5076630;28;20576;-88
2022/12/23 04:51:26;;;;;;;28.40;11.00;;;;;;;;;;5028103;28;20056;-88
2022/12/23 04:54:18;;;;;;;30.83;12.25;;;;;;;;;;5049826;28;20561;-88
2022/12/23 04:56:51;;;;;;;29.67;11.85;;;;;;;;;;5061063;28;20044;-89
2022/12/23 04:59:18;;;;;;;32.88;11.63;;;;;;;;;;5051463;28;20084;-89
2022/12/23 05:01:50;;;;;;;31.67;11.65;;;;;;;;;;5059397;28;20510;-88
2022/12/23 05:04:28;;;;;;;28.67;10.40;;;;;;;;;;5059922;28;20857;-89
2022/12/23 05:06:56;;;;;;;26.58;10.30;;;;;;;;;;5075933;28;20236;-88
2022/12/23 05:09:28;;;;;;;27.35;11.45;;;;;;;;;;5054687;28;20037;-89
2022/12/23 05:11:56;;;;;;;31.10;10.73;;;;;;;;;;5079477;28;20041;-88
2022/12/23 05:14:24;;;;;;;24.88;10.35;;;;;;;;;;5059708;28;20519;-88
2022/12/23 05:17:42;;;;;;;27.40;10.25;;;;;;;;;;5073830;28;20045;-88
2022/12/23 05:20:10;;;;;;;29.38;10.90;;;;;;;;;;5063438;28;20060;-89
2022/12/23 05:22:42;;;;;;;30.13;11.15;;;;;;;;;;5078191;28;20040;-89
2022/12/23 05:25:14;;;;;;;33.55;11.13;;;;;;;;;;5073835;28;20037;-89
2022/12/23 05:27:42;;;;;;;27.90;11.07;;;;;;;;;;5079363;28;20060;-88
2022/12/23 05:30:11;;;;;;;25.85;10.63;;;;;;;;;;5059185;28;20083;-88
2022/12/23 05:32:38;;;;;;;31.48;11.32;;;;;;;;;;5073828;28;20149;-88
2022/12/23 05:35:06;;;;;;;49.63;14.13;;;;;;;;;;5057391;28;20060;-88
2022/12/23 05:37:58;;;;;;;46.47;14.48;;;;;;;;;;5059316;28;20032;-88
2022/12/23 05:40:26;;;;;;;47.75;14.90;;;;;;;;;;5060709;28;20050;-88
2022/12/23 05:43:03;;;;;;;46.15;13.23;;;;;;;;;;5043856;28;20083;-88
2022/12/23 05:45:34;;;;;;;53.03;14.40;;;;;;;;;;5076601;28;20040;-89
2022/12/23 05:48:02;;;;;;;54.42;14.48;;;;;;;;;;5058493;28;20093;-88
2022/12/23 05:51:00;;;;;;;55.17;14.95;;;;;;;;;;5076686;28;20702;-89
2022/12/23 05:53:28;;;;;;;56.85;15.43;;;;;;;;;;5076512;28;20036;-88
2022/12/23 05:55:56;;;;;;;52.30;15.18;;;;;;;;;;5075981;28;20119;-88
2022/12/23 05:58:24;;;;;;;52.00;15.20;;;;;;;;;;5057848;28;20044;-88
2022/12/23 06:00:56;;;;;;;50.05;13.93;;;;;;;;;;5075398;28;20037;-88
2022/12/23 06:03:24;;;;;;;54.05;15.25;;;;;;;;;;5059613;28;20033;-88
2022/12/23 06:06:03;;;;;;;52.97;13.65;;;;;;;;;;5057892;28;20143;-88
2022/12/23 06:08:30;;;;;;;60.75;15.43;;;;;;;;;;5056489;28;20039;-89
2022/12/23 06:10:58;;;;;;;54.28;15.13;;;;;;;;;;5075365;28;20896;-90
2022/12/23 06:13:32;;;;;;;47.60;13.48;;;;;;;;;;5057721;28;20045;-89
2022/12/23 06:16:00;;;;;;;54.13;13.57;;;;;;;;;;5058249;28;20075;-88
2022/12/23 06:18:28;;;;;;;53.97;13.93;;;;;;;;;;5054577;28;20142;-89
2022/12/23 06:20:56;;;;;;;40.17;12.65;;;;;;;;;;5059115;28;20032;-90
2022/12/23 06:23:24;;;;;;;48.70;13.13;;;;;;;;;;5073923;28;20037;-89
2022/12/23 06:26:00;;;;;;;50.97;15.35;;;;;;;;;;5053990;28;20040;-89
2022/12/23 06:28:50;;;;;;;45.95;12.88;;;;;;;;;;5074402;28;20077;-91
2022/12/23 06:31:18;;;;;;;45.92;12.23;;;;;;;;;;5039476;28;20074;-89
2022/12/23 06:33:50;;;;;;;40.78;13.30;;;;;;;;;;5070931;28;20044;-89
2022/12/23 06:39:16;;;;;;;46.85;13.73;;;;;;;;;;5077361;28;20128;-88
2022/12/23 06:41:44;;;;;;;40.50;12.48;;;;;;;;;;5040788;28;20127;-89
2022/12/23 06:44:17;;;;;;;42.45;13.05;;;;;;;;;;5057929;28;20036;-90
2022/12/23 06:46:49;;;;;;;44.83;13.95;;;;;;;;;;5046155;28;20032;-88
2022/12/23 06:49:16;;;;;;;48.60;12.90;;;;;;;;;;5059338;28;20470;-89
2022/12/23 06:51:44;;;;;;;54.10;13.63;;;;;;;;;;5075764;28;20044;-88
2022/12/23 06:54:36;;;;;;;50.40;12.82;;;;;;;;;;5074157;28;20490;-88
2022/12/23 06:57:04;;;;;;;46.35;12.63;;;;;;;;;;5057341;28;20043;-86
2022/12/23 06:59:32;;;;;;;44.28;12.82;;;;;;;;;;5041568;28;20044;-86
2022/12/23 07:02:05;;;;;;;52.40;13.88;;;;;;;;;;5057763;28;20040;-86
2022/12/23 07:04:56;;;;;;;43.95;11.38;;;;;;;;;;5076583;28;20032;-86
2022/12/23 07:07:24;;;;;;;42.15;12.07;;;;;;;;;;5042014;28;20032;-86
2022/12/23 07:09:56;;;;;;;43.33;12.10;;;;;;;;;;5074943;28;20048;-86
2022/12/23 07:12:24;;;;;;;45.20;12.80;;;;;;;;;;5076129;28;20122;-86
2022/12/23 07:14:52;;;;;;;40.25;12.57;;;;;;;;;;5058424;28;20044;-86
2022/12/23 07:17:46;;;;;;;37.83;12.93;;;;;;;;;;5078680;28;20040;-86
2022/12/23 07:20:18;;;;;;;45.67;12.23;;;;;;;;;;5077413;28;20079;-86
2022/12/23 07:22:46;;;;;;;48.08;13.02;;;;;;;;;;5048872;28;20093;-86
2022/12/23 07:25:15;;;;;;;51.00;13.77;;;;;;;;;;5077056;28;20047;-86
2022/12/23 07:27:42;;;;;;;47.67;13.15;;;;;;;;;;5060682;28;20032;-86
2022/12/23 07:30:10;;;;;;;48.05;12.93;;;;;;;;;;5060881;28;20123;-86
2022/12/23 07:32:38;;;;;;;47.15;12.50;;;;;;;;;;5070549;28;20063;-86
2022/12/23 07:35:06;;;;;;;47.55;11.40;;;;;;;;;;5061280;28;20449;-86
2022/12/23 07:37:58;;;;;;;43.65;11.35;;;;;;;;;;5079666;28;20036;-86
2022/12/23 07:40:26;;;;;;;41.40;11.63;;;;;;;;;;5063167;28;20490;-86
2022/12/23 07:42:59;;;;;;;45.05;11.93;;;;;;;;;;5078948;28;20044;-86
2022/12/23 07:45:28;;;;;;;45.97;12.73;;;;;;;;;;5080035;28;20040;-86
2022/12/23 07:47:58;;;;;;;44.65;11.85;;;;;;;;;;5068626;28;20024;-86
2022/12/23 07:50:50;;;;;;;53.00;11.75;;;;;;;;;;5082342;28;20035;-86
2022/12/23 07:53:42;;;;;;;42.92;10.20;;;;;;;;;;5077177;28;20041;-86
2022/12/23 07:56:10;;;;;;;38.95;11.05;;;;;;;;;;5080637;28;20044;-86
2022/12/23 07:58:50;;;;;;;38.17;9.88;;;;;;;;;;5064793;28;20087;-86
2022/12/23 08:01:42;;;;;;;45.70;11.45;;;;;;;;;;5077606;28;20048;-86
2022/12/23 08:04:34;;;;;;;44.90;11.30;;;;;;;;;;5064382;28;20041;-86
2022/12/23 08:07:14;;;;;;;42.03;10.80;;;;;;;;;;5046076;28;20135;-86
2022/12/23 08:09:42;;;;;;;46.95;11.70;;;;;;;;;;5063931;28;20039;-86
2022/12/23 08:12:10;;;;;;;42.97;10.93;;;;;;;;;;5084896;28;20060;-86
2022/12/23 08:14:38;;;;;;;41.03;10.88;;;;;;;;;;5064795;28;20047;-86
2022/12/23 08:17:06;;;;;;;53.53;11.38;;;;;;;;;;5077923;28;20496;-86
2022/12/23 08:20:00;;;;;;;49.40;9.40;;;;;;;;;;5079278;28;20028;-87
2022/12/23 08:22:30;;;;;;;44.05;10.35;;;;;;;;;;5064801;28;20054;-86
2022/12/23 08:24:58;;;;;;;46.45;9.57;;;;;;;;;;5064435;28;20036;-89
2022/12/23 08:27:26;;;;;;;39.45;9.65;;;;;;;;;;5066117;28;20040;-89
2022/12/23 08:29:54;;;;;;;41.45;11.75;;;;;;;;;;5082396;28;20506;-88
2022/12/23 08:32:26;;;;;;;45.00;9.77;;;;;;;;;;5061306;28;20101;-89
2022/12/23 08:35:16;;;;;;;43.40;10.18;;;;;;;;;;5073963;28;20056;-88
2022/12/23 08:37:44;;;;;;;41.88;10.38;;;;;;;;;;5063591;28;20044;-89
2022/12/23 08:40:39;;;;;;;38.97;10.60;;;;;;;;;;5083231;28;20048;-89
2022/12/23 08:43:06;;;;;;;44.45;10.50;;;;;;;;;;5055196;28;20139;-89
2022/12/23 08:45:37;;;;;;;44.63;10.23;;;;;;;;;;5082828;28;20433;-88
2022/12/23 08:48:05;;;;;;;47.03;10.77;;;;;;;;;;5085353;28;20042;-89
2022/12/23 08:50:40;;;;;;;46.55;11.18;;;;;;;;;;5063772;28;20131;-89
2022/12/23 08:53:09;;;;;;;43.40;10.82;;;;;;;;;;5078450;28;20115;-89
2022/12/23 08:55:38;;;;;;;41.05;9.65;;;;;;;;;;5067460;28;20056;-89
2022/12/23 08:58:07;;;;;;;40.17;10.57;;;;;;;;;;5055062;28;20079;-89
2022/12/23 09:01:05;;;;;;;34.97;9.65;;;;;;;;;;5065898;28;20048;-88
2022/12/23 09:04:02;;;;;;;41.15;9.07;;;;;;;;;;5057690;28;20036;-88
2022/12/23 09:06:35;;;;;;;43.85;10.73;;;;;;;;;;5080975;28;20442;-88
2022/12/23 09:10:03;;;;;;;44.17;9.60;;;;;;;;;;5080143;28;20043;-88
2022/12/23 09:12:18;;;;;;;47.20;11.00;;;;;;;;;;5077385;28;20060;-88
2022/12/23 09:14:47;;;;;;;40.15;10.35;;;;;;;;;;5062391;28;20039;-88
2022/12/23 09:17:16;;;;;;;41.03;9.50;;;;;;;;;;5078455;28;20054;-88
2022/12/23 09:20:14;;;;;;;43.47;10.00;;;;;;;;;;5078944;28;20054;-88
2022/12/23 09:22:42;;;;;;;48.83;11.63;;;;;;;;;;5082466;28;20048;-88
2022/12/23 09:25:35;;;;;;;47.58;9.32;;;;;;;;;;5065911;28;20115;-88
2022/12/23 09:28:08;;;;;;;46.55;11.25;;;;;;;;;;5041592;28;20078;-88
2022/12/23 09:30:36;;;;;;;48.10;11.00;;;;;;;;;;5054070;28;20131;-88
2022/12/23 09:33:04;;;;;;;40.17;9.55;;;;;;;;;;5065388;28;20150;-87
2022/12/23 09:35:32;;;;;;;39.40;9.40;;;;;;;;;;5062953;28;20143;-87
2022/12/23 09:38:00;;;;;;;35.22;10.25;;;;;;;;;;5048676;28;20498;-88
2022/12/23 09:40:33;;;;;;;42.28;10.90;;;;;;;;;;5081667;28;20135;-88
2022/12/23 09:43:30;;;;;;;42.15;10.85;;;;;;;;;;5065651;28;20165;-87
2022/12/23 09:46:25;;;;;;;44.15;11.43;;;;;;;;;;5066676;28;20071;-88
2022/12/23 09:49:21;;;;;;;42.33;9.63;;;;;;;;;;5048882;28;20596;-88
2022/12/23 09:52:01;;;;;;;36.85;10.30;;;;;;;;;;5048844;28;20041;-87
2022/12/23 09:54:39;;;;;;;36.95;10.63;;;;;;;;;;5062793;28;20048;-88
2022/12/23 09:58:00;;;;;;;47.10;10.95;;;;;;;;;;5085265;28;20089;-89
2022/12/23 10:00:41;;;;;;;46.30;9.35;;;;;;;;;;5063557;28;20493;-88
2022/12/23 10:03:27;;;;;;;41.97;11.77;;;;;;;;;;5060187;28;20549;-89
2022/12/23 10:06:01;;;;;;;37.78;11.45;;;;;;;;;;5060691;28;20090;-88
2022/12/23 10:08:35;;;;;;;39.25;9.90;;;;;;;;;;5048645;28;20081;-89
2022/12/23 10:11:20;;;;;;;51.10;9.68;;;;;;;;;;5079899;28;20051;-88
2022/12/23 10:13:53;;;;;;;41.42;10.73;;;;;;;;;;5065649;28;20044;-88
2022/12/23 10:16:37;;;;;;;48.78;12.00;;;;;;;;;;5060467;28;20050;-87
2022/12/23 10:19:53;;;;;;;44.53;10.85;;;;;;;;;;5079445;28;20033;-87
2022/12/23 10:22:42;;;;;;;48.05;11.00;;;;;;;;;;5065259;28;20527;-87
2022/12/23 10:25:42;;;;;;;42.63;11.38;;;;;;;;;;5079249;28;20109;-87
2022/12/23 10:28:18;;;;;;;40.97;11.95;;;;;;;;;;5076719;28;20044;-87
2022/12/23 10:31:35;;;;;;;45.78;12.10;;;;;;;;;;5079291;28;20040;-87
2022/12/23 10:34:36;;;;;;;45.42;11.18;;;;;;;;;;5078850;28;20044;-87
2022/12/23 10:37:43;;;;;;;41.58;10.60;;;;;;;;;;5080064;28;20498;-87
2022/12/23 10:40:19;;;;;;;40.20;10.35;;;;;;;;;;5080602;28;20036;-87
2022/12/23 10:43:20;;;;;;;49.17;12.35;;;;;;;;;;5081217;28;20047;-87
2022/12/23 10:46:06;;;;;;;45.10;12.70;;;;;;;;;;5077993;28;20063;-87
2022/12/23 10:48:53;;;;;;;45.50;11.77;;;;;;;;;;5047957;28;20047;-87
2022/12/23 10:51:53;;;;;;;43.15;11.02;;;;;;;;;;5078547;28;20067;-87
2022/12/23 10:54:28;;;;;;;47.05;10.60;;;;;;;;;;5079778;28;20414;-87
2022/12/23 10:56:57;;;;;;;45.85;11.98;;;;;;;;;;5080199;28;20036;-87
2022/12/23 10:59:30;;;;;;;41.50;11.18;;;;;;;;;;5061667;28;20043;-86
2022/12/23 11:02:11;;;;;;;38.53;10.18;;;;;;;;;;5076809;28;20040;-87
2022/12/23 11:04:47;;;;;;;41.35;11.02;;;;;;;;;;5060052;28;20031;-87
2022/12/23 11:07:21;;;;;;;46.40;11.75;;;;;;;;;;5075870;28;20066;-87
2022/12/23 11:10:19;;;;;;;42.30;11.40;;;;;;;;;;5066750;28;20150;-87
2022/12/23 11:13:22;;;;;;;40.80;11.13;;;;;;;;;;5076317;28;20044;-87
2022/12/23 11:16:27;;;;;;;38.85;10.88;;;;;;;;;;5073995;28;20125;-88
2022/12/23 11:18:59;;;;;;;37.22;10.63;;;;;;;;;;5055514;28;20063;-88
2022/12/23 11:21:52;;;;;;;37.30;10.77;;;;;;;;;;5055566;28;20123;-88
2022/12/23 11:24:21;;;;;;;41.10;10.13;;;;;;;;;;5063249;28;20517;-88
2022/12/23 11:27:01;;;;;;;41.58;11.13;;;;;;;;;;5063175;28;20491;-88
2022/12/23 11:29:34;;;;;;;43.60;11.60;;;;;;;;;;5083450;28;20037;-88
2022/12/23 11:32:15;;;;;;;38.67;10.52;;;;;;;;;;5081892;28;20039;-88
2022/12/23 11:34:45;;;;;;;37.55;11.30;;;;;;;;;;5077741;28;20102;-86
2022/12/23 11:37:33;;;;;;;40.17;11.25;;;;;;;;;;5063478;28;20507;-85
2022/12/23 11:40:02;;;;;;;45.33;11.30;;;;;;;;;;5045147;28;20060;-85
2022/12/23 11:42:34;;;;;;;41.95;11.90;;;;;;;;;;5076615;28;20071;-86
2022/12/23 11:45:05;;;;;;;38.42;11.05;;;;;;;;;;5077702;28;20041;-86
2022/12/23 11:47:40;;;;;;;44.70;11.65;;;;;;;;;;5056826;28;20037;-85
2022/12/23 11:50:30;;;;;;;43.45;11.50;;;;;;;;;;5079643;28;20404;-86
2022/12/23 11:53:26;;;;;;;34.63;10.98;;;;;;;;;;5051305;28;20028;-87
2022/12/23 11:56:07;;;;;;;37.10;11.85;;;;;;;;;;5070932;28;20494;-87
2022/12/23 11:58:52;;;;;;;39.13;12.43;;;;;;;;;;5079811;28;20055;-87
2022/12/23 12:01:23;;;;;;;41.00;11.05;;;;;;;;;;5061007;28;20047;-86
2022/12/23 12:03:59;;;;;;;42.97;11.85;;;;;;;;;;5076333;28;20037;-86
2022/12/23 12:06:29;;;;;;;38.83;10.38;;;;;;;;;;5080189;28;20032;-87
2022/12/23 12:09:00;;;;;;;33.70;10.48;;;;;;;;;;5046072;28;20051;-87
2022/12/23 12:11:37;;;;;;;41.65;10.60;;;;;;;;;;5064094;28;20498;-86
2022/12/23 12:14:41;;;;;;;41.22;11.40;;;;;;;;;;5063583;28;20043;-86
2022/12/23 12:17:31;;;;;;;35.88;10.35;;;;;;;;;;5051268;28;20075;-86
2022/12/23 12:20:01;;;;;;;32.40;10.10;;;;;;;;;;5070865;28;20490;-86
2022/12/23 12:22:51;;;;;;;41.75;11.48;;;;;;;;;;5059854;28;20036;-86
2022/12/23 12:25:32;;;;;;;43.55;11.65;;;;;;;;;;5080771;28;20043;-86
2022/12/23 12:28:12;;;;;;;41.25;11.43;;;;;;;;;;5082043;28;20041;-86
2022/12/23 12:31:19;;;;;;;37.80;12.43;;;;;;;;;;5076406;28;20044;-86
2022/12/23 12:34:39;;;;;;;31.17;9.88;;;;;;;;;;5080275;28;20115;-87
2022/12/23 12:37:35;;;;;;;44.83;11.80;;;;;;;;;;5085882;28;20037;-86
2022/12/23 12:40:25;;;;;;;39.55;11.38;;;;;;;;;;5085930;28;20383;-87
2022/12/23 12:43:19;;;;;;;39.80;10.48;;;;;;;;;;5017265;28;20057;-87
2022/12/23 12:45:59;;;;;;;45.25;11.57;;;;;;;;;;5011956;28;20149;-87
2022/12/23 12:49:08;;;;;;;40.40;12.88;;;;;;;;;;5020006;28;20038;-87
2022/12/23 12:51:55;;;;;;;35.38;9.93;;;;;;;;;;5023795;28;20051;-87
2022/12/23 12:54:36;;;;;;;39.28;10.23;;;;;;;;;;5028850;28;20507;-87
2022/12/23 12:58:07;;;;;;;29.63;9.98;;;;;;;;;;5021667;28;20033;-87
2022/12/23 13:01:08;;;;;;;22.63;8.05;;;;;;;;;;4996158;28;20061;-87
2022/12/23 13:03:58;;;;;;;34.78;10.32;;;;;;;;;;5022235;28;20045;-87
2022/12/23 13:06:40;;;;;;;33.10;9.75;;;;;;;;;;5020697;28;20049;-88
2022/12/23 13:09:25;;;;;;;29.50;8.90;;;;;;;;;;5019755;28;20044;-88
2022/12/23 13:12:05;;;;;;;33.10;8.95;;;;;;;;;;5012871;28;20050;-87
2022/12/23 13:14:43;;;;;;;35.53;8.02;;;;;;;;;;5009994;28;20062;-86
2022/12/23 13:18:04;;;;;;;30.35;9.15;;;;;;;;;;5011246;28;20087;-87
2022/12/23 13:20:47;;;;;;;30.70;9.18;;;;;;;;;;5051350;28;20053;-87
2022/12/23 13:23:19;;;;;;;23.67;9.23;;;;;;;;;;5081339;28;20056;-88
2022/12/23 13:26:37;;;;;;;31.58;9.48;;;;;;;;;;5076863;28;20517;-86
2022/12/23 13:29:25;;;;;;;29.05;8.13;;;;;;;;;;5013180;28;20065;-85
2022/12/23 13:32:16;;;;;;;27.85;9.15;;;;;;;;;;5016073;28;20136;-86
2022/12/23 13:34:59;;;;;;;26.55;8.23;;;;;;;;;;5018596;28;20069;-86
2022/12/23 13:37:53;;;;;;;23.77;8.65;;;;;;;;;;5015755;28;20049;-87
2022/12/23 13:40:39;;;;;;;28.35;8.70;;;;;;;;;;5017452;28;20049;-87
2022/12/23 13:43:17;;;;;;;27.48;8.45;;;;;;;;;;5016165;28;20214;-87
2022/12/23 13:45:46;;;;;;;24.02;8.55;;;;;;;;;;5014723;28;20056;-85
2022/12/23 13:48:35;;;;;;;25.90;8.05;;;;;;;;;;5014957;28;20050;-86
2022/12/23 13:51:14;;;;;;;23.05;8.25;;;;;;;;;;5002267;28;20134;-87
2022/12/23 13:53:46;;;;;;;21.15;7.65;;;;;;;;;;5019449;28;20053;-87
2022/12/23 13:56:37;;;;;;;23.98;7.70;;;;;;;;;;5003111;28;20037;-87
2022/12/23 13:59:13;;;;;;;27.75;7.95;;;;;;;;;;5018486;28;20041;-87
2022/12/23 14:01:40;;;;;;;19.38;7.78;;;;;;;;;;5005676;28;20145;-87
2022/12/23 14:04:35;;;;;;;26.40;8.23;;;;;;;;;;5016305;28;20532;-87
2022/12/23 14:07:20;;;;;;;29.48;9.70;;;;;;;;;;5057837;28;20057;-87
2022/12/23 14:10:11;;;;;;;31.85;10.63;;;;;;;;;;5067636;28;20047;-87
2022/12/23 14:12:48;;;;;;;32.35;11.73;;;;;;;;;;5065722;28;20060;-87
2022/12/23 14:15:33;;;;;;;32.28;11.85;;;;;;;;;;5077558;28;20036;-87
2022/12/23 14:18:27;;;;;;;34.42;12.02;;;;;;;;;;5066820;28;20036;-87
2022/12/23 14:21:15;;;;;;;36.63;12.38;;;;;;;;;;5063544;28;20028;-86
2022/12/23 14:24:25;;;;;;;34.72;12.38;;;;;;;;;;5064667;28;20040;-86
2022/12/23 14:27:19;;;;;;;37.00;12.48;;;;;;;;;;5073679;28;20137;-86
2022/12/23 14:30:06;;;;;;;43.60;14.65;;;;;;;;;;4996445;28;20053;-86
2022/12/23 14:32:58;;;;;;;40.58;14.63;;;;;;;;;;5014885;28;20543;-86
2022/12/23 14:35:32;;;;;;;41.95;14.18;;;;;;;;;;4995712;28;20049;-86
2022/12/23 14:38:14;;;;;;;48.17;14.25;;;;;;;;;;5018152;28;20045;-86
2022/12/23 14:41:49;;;;;;;47.78;15.02;;;;;;;;;;5016456;28;20049;-86
2022/12/23 14:44:47;;;;;;;43.85;13.88;;;;;;;;;;4967979;28;20050;-86
2022/12/23 14:47:30;;;;;;;41.42;13.52;;;;;;;;;;4984257;28;20090;-86
2022/12/23 14:50:37;;;;;;;45.53;13.50;;;;;;;;;;4980627;28;20097;-86
2022/12/23 14:53:22;;;;;;;38.00;13.05;;;;;;;;;;4968452;28;20064;-86
2022/12/23 14:56:10;;;;;;;;;;;;;;;;;;4978401;28;20050;-86
2022/12/23 14:58:50;;;;;;;43.97;12.20;;;;;;;;;;4926085;29;19954;-86
2022/12/23 15:01:30;;;;;;;44.40;13.25;;;;;;;;;;4909447;29;20091;-86
2022/12/23 15:04:11;;;;;;;43.00;13.45;;;;;;;;;;4899573;29;20134;-86
2022/12/23 15:06:41;;;;;;;38.50;12.13;;;;;;;;;;4894803;29;20051;-86
2022/12/23 15:09:30;;;;;;;44.03;13.25;;;;;;;;;;4938153;29;20077;-86
2022/12/23 15:12:13;;;;;;;36.50;11.48;;;;;;;;;;4918131;29;20058;-87
2022/12/23 15:14:48;;;;;;;44.22;13.43;;;;;;;;;;4963433;28;20085;-86
2022/12/23 15:17:27;;;;;;;52.22;14.40;;;;;;;;;;5009835;28;20408;-87
2022/12/23 15:20:09;;;;;;;44.78;13.73;;;;;;;;;;5012564;28;20455;-87
2022/12/23 15:22:44;;;;;;;39.40;12.75;;;;;;;;;;5016617;28;20081;-87
2022/12/23 15:25:44;;;;;;;34.83;12.30;;;;;;;;;;5002864;28;20044;-87
2022/12/23 15:28:35;;;;;;;40.90;13.50;;;;;;;;;;5001588;28;20051;-87
2022/12/23 15:31:04;;;;;;;42.13;13.05;;;;;;;;;;5013753;28;20045;-87
2022/12/23 15:33:36;;;;;;;45.03;13.68;;;;;;;;;;4997348;28;20042;-87
2022/12/23 15:36:30;;;;;;;40.83;12.88;;;;;;;;;;5044910;28;20505;-87
2022/12/23 15:39:17;;;;;;;40.50;12.77;;;;;;;;;;5061039;28;20048;-87
2022/12/23 15:41:46;;;;;;;41.47;13.50;;;;;;;;;;5061404;28;20497;-87
2022/12/23 15:44:22;;;;;;;36.38;11.27;;;;;;;;;;5060858;28;20090;-88
2022/12/23 15:46:51;;;;;;;39.22;12.30;;;;;;;;;;5079327;28;20048;-87
2022/12/23 15:49:24;;;;;;;39.78;12.13;;;;;;;;;;5062726;28;20378;-88
2022/12/23 15:52:00;;;;;;;34.28;12.38;;;;;;;;;;5064915;28;20043;-88
2022/12/23 15:54:53;;;;;;;34.88;11.63;;;;;;;;;;5079123;28;20512;-87
2022/12/23 15:57:24;;;;;;;33.25;11.00;;;;;;;;;;5081699;28;20040;-87
2022/12/23 15:59:57;;;;;;;34.72;11.38;;;;;;;;;;5065114;28;20032;-87
2022/12/23 16:02:33;;;;;;;41.55;13.23;;;;;;;;;;5073506;28;20106;-87
2022/12/23 16:05:35;;;;;;;32.58;11.07;;;;;;;;;;5051742;28;20041;-88
2022/12/23 16:08:33;;;;;;;41.75;14.05;;;;;;;;;;5065229;28;20036;-88